sensor_id;sensor_type;location;lat;lon;timestamp;P1;durP1;ratioP1;P2;durP2;ratioP2
24483;SDS011;12643;51.620;7.548;2022-10-22T00:00:34;7.07;;;4.93;;
24483;SDS011;12643;51.620;7.548;2022-10-22T00:03:02;6.22;;;4.80;;
24483;SDS011;12643;51.620;7.548;2022-10-22T00:05:30;7.57;;;5.47;;
24483;SDS011;12643;51.620;7.548;2022-10-22T00:07:58;5.45;;;4.85;;
24483;SDS011;12643;51.620;7.548;2022-10-22T00:10:28;5.70;;;5.07;;
24483;SDS011;12643;51.620;7.548;2022-10-22T00:12:56;8.60;;;5.10;;
24483;SDS011;12643;51.620;7.548;2022-10-22T00:15:25;7.45;;;5.13;;
24483;SDS011;12643;51.620;7.548;2022-10-22T00:17:53;6.00;;;4.70;;
24483;SDS011;12643;51.620;7.548;2022-10-22T00:20:20;7.45;;;5.38;;
24483;SDS011;12643;51.620;7.548;2022-10-22T00:22:48;6.07;;;4.68;;
24483;SDS011;12643;51.620;7.548;2022-10-22T00:25:16;7.60;;;4.50;;
24483;SDS011;12643;51.620;7.548;2022-10-22T00:27:48;5.93;;;5.03;;
24483;SDS011;12643;51.620;7.548;2022-10-22T00:30:16;5.13;;;4.55;;
24483;SDS011;12643;51.620;7.548;2022-10-22T00:32:44;6.57;;;4.85;;
24483;SDS011;12643;51.620;7.548;2022-10-22T00:35:11;6.50;;;4.30;;
24483;SDS011;12643;51.620;7.548;2022-10-22T00:37:39;5.10;;;3.60;;
24483;SDS011;12643;51.620;7.548;2022-10-22T00:40:08;5.57;;;3.95;;
24483;SDS011;12643;51.620;7.548;2022-10-22T00:42:37;4.32;;;3.92;;
24483;SDS011;12643;51.620;7.548;2022-10-22T00:45:17;4.30;;;3.67;;
24483;SDS011;12643;51.620;7.548;2022-10-22T00:47:51;6.55;;;3.60;;
24483;SDS011;12643;51.620;7.548;2022-10-22T00:50:24;5.53;;;3.90;;
24483;SDS011;12643;51.620;7.548;2022-10-22T00:52:55;4.80;;;3.72;;
24483;SDS011;12643;51.620;7.548;2022-10-22T00:55:24;3.17;;;2.72;;
24483;SDS011;12643;51.620;7.548;2022-10-22T00:57:53;6.57;;;4.05;;
24483;SDS011;12643;51.620;7.548;2022-10-22T01:00:24;4.55;;;3.50;;
24483;SDS011;12643;51.620;7.548;2022-10-22T01:02:53;4.95;;;3.88;;
24483;SDS011;12643;51.620;7.548;2022-10-22T01:05:21;4.00;;;3.40;;
24483;SDS011;12643;51.620;7.548;2022-10-22T01:07:52;3.33;;;3.03;;
24483;SDS011;12643;51.620;7.548;2022-10-22T01:10:26;3.10;;;2.90;;
24483;SDS011;12643;51.620;7.548;2022-10-22T01:13:04;4.10;;;2.70;;
24483;SDS011;12643;51.620;7.548;2022-10-22T01:15:44;3.20;;;2.90;;
24483;SDS011;12643;51.620;7.548;2022-10-22T01:18:19;3.03;;;2.72;;
24483;SDS011;12643;51.620;7.548;2022-10-22T01:20:55;4.45;;;2.33;;
24483;SDS011;12643;51.620;7.548;2022-10-22T01:23:37;4.50;;;2.95;;
24483;SDS011;12643;51.620;7.548;2022-10-22T01:26:32;3.55;;;2.85;;
24483;SDS011;12643;51.620;7.548;2022-10-22T01:29:11;2.58;;;2.25;;
24483;SDS011;12643;51.620;7.548;2022-10-22T01:31:43;3.67;;;2.38;;
24483;SDS011;12643;51.620;7.548;2022-10-22T01:34:16;3.42;;;2.20;;
24483;SDS011;12643;51.620;7.548;2022-10-22T01:36:45;3.42;;;2.38;;
24483;SDS011;12643;51.620;7.548;2022-10-22T01:39:14;4.38;;;2.60;;
24483;SDS011;12643;51.620;7.548;2022-10-22T01:41:44;6.05;;;3.17;;
24483;SDS011;12643;51.620;7.548;2022-10-22T01:44:25;3.60;;;2.70;;
24483;SDS011;12643;51.620;7.548;2022-10-22T01:46:56;3.42;;;2.70;;
24483;SDS011;12643;51.620;7.548;2022-10-22T01:49:36;2.67;;;2.30;;
24483;SDS011;12643;51.620;7.548;2022-10-22T01:52:31;2.40;;;2.20;;
24483;SDS011;12643;51.620;7.548;2022-10-22T01:55:11;3.85;;;3.13;;
24483;SDS011;12643;51.620;7.548;2022-10-22T01:57:45;2.92;;;2.60;;
24483;SDS011;12643;51.620;7.548;2022-10-22T02:00:23;4.38;;;2.53;;
24483;SDS011;12643;51.620;7.548;2022-10-22T02:02:53;3.45;;;2.40;;
24483;SDS011;12643;51.620;7.548;2022-10-22T02:05:27;2.63;;;2.20;;
24483;SDS011;12643;51.620;7.548;2022-10-22T02:08:03;2.60;;;2.40;;
24483;SDS011;12643;51.620;7.548;2022-10-22T02:10:34;3.90;;;2.70;;
24483;SDS011;12643;51.620;7.548;2022-10-22T02:13:03;2.60;;;2.40;;
24483;SDS011;12643;51.620;7.548;2022-10-22T02:15:35;3.33;;;2.80;;
24483;SDS011;12643;51.620;7.548;2022-10-22T02:18:06;4.15;;;2.50;;
24483;SDS011;12643;51.620;7.548;2022-10-22T02:20:36;2.58;;;2.38;;
24483;SDS011;12643;51.620;7.548;2022-10-22T02:25:35;3.90;;;3.00;;
24483;SDS011;12643;51.620;7.548;2022-10-22T02:28:09;2.75;;;2.50;;
24483;SDS011;12643;51.620;7.548;2022-10-22T02:30:45;3.22;;;2.47;;
24483;SDS011;12643;51.620;7.548;2022-10-22T02:33:18;2.80;;;2.60;;
24483;SDS011;12643;51.620;7.548;2022-10-22T02:35:50;3.00;;;2.80;;
24483;SDS011;12643;51.620;7.548;2022-10-22T02:38:19;4.07;;;2.88;;
24483;SDS011;12643;51.620;7.548;2022-10-22T02:40:48;3.72;;;2.67;;
24483;SDS011;12643;51.620;7.548;2022-10-22T02:43:18;2.88;;;2.67;;
24483;SDS011;12643;51.620;7.548;2022-10-22T02:45:48;2.95;;;2.30;;
24483;SDS011;12643;51.620;7.548;2022-10-22T02:48:16;2.95;;;2.50;;
24483;SDS011;12643;51.620;7.548;2022-10-22T02:50:44;3.47;;;2.53;;
24483;SDS011;12643;51.620;7.548;2022-10-22T02:53:12;3.10;;;2.63;;
24483;SDS011;12643;51.620;7.548;2022-10-22T02:55:40;2.92;;;2.53;;
24483;SDS011;12643;51.620;7.548;2022-10-22T02:58:08;3.13;;;2.83;;
24483;SDS011;12643;51.620;7.548;2022-10-22T03:00:38;5.15;;;2.95;;
24483;SDS011;12643;51.620;7.548;2022-10-22T03:03:08;3.22;;;2.80;;
24483;SDS011;12643;51.620;7.548;2022-10-22T03:05:36;3.05;;;2.70;;
24483;SDS011;12643;51.620;7.548;2022-10-22T03:08:03;3.35;;;2.70;;
24483;SDS011;12643;51.620;7.548;2022-10-22T03:10:32;4.72;;;2.70;;
24483;SDS011;12643;51.620;7.548;2022-10-22T03:13:00;2.88;;;2.67;;
24483;SDS011;12643;51.620;7.548;2022-10-22T03:15:28;3.42;;;2.80;;
24483;SDS011;12643;51.620;7.548;2022-10-22T03:17:56;6.18;;;2.88;;
24483;SDS011;12643;51.620;7.548;2022-10-22T03:20:25;3.35;;;2.75;;
24483;SDS011;12643;51.620;7.548;2022-10-22T03:22:54;3.10;;;2.78;;
24483;SDS011;12643;51.620;7.548;2022-10-22T03:25:23;5.05;;;3.25;;
24483;SDS011;12643;51.620;7.548;2022-10-22T03:27:52;3.38;;;2.63;;
24483;SDS011;12643;51.620;7.548;2022-10-22T03:30:22;4.22;;;2.85;;
24483;SDS011;12643;51.620;7.548;2022-10-22T03:32:50;3.03;;;2.65;;
24483;SDS011;12643;51.620;7.548;2022-10-22T03:35:18;3.53;;;2.58;;
24483;SDS011;12643;51.620;7.548;2022-10-22T03:37:49;3.10;;;2.63;;
24483;SDS011;12643;51.620;7.548;2022-10-22T03:40:17;3.20;;;2.65;;
24483;SDS011;12643;51.620;7.548;2022-10-22T03:42:46;3.22;;;2.70;;
24483;SDS011;12643;51.620;7.548;2022-10-22T03:45:14;2.95;;;2.65;;
24483;SDS011;12643;51.620;7.548;2022-10-22T03:47:42;6.15;;;2.80;;
24483;SDS011;12643;51.620;7.548;2022-10-22T03:50:10;3.85;;;2.53;;
24483;SDS011;12643;51.620;7.548;2022-10-22T03:52:38;3.30;;;2.75;;
24483;SDS011;12643;51.620;7.548;2022-10-22T03:55:09;4.93;;;2.97;;
24483;SDS011;12643;51.620;7.548;2022-10-22T03:57:37;4.38;;;3.25;;
24483;SDS011;12643;51.620;7.548;2022-10-22T04:00:06;4.88;;;2.72;;
24483;SDS011;12643;51.620;7.548;2022-10-22T04:02:35;5.40;;;3.65;;
24483;SDS011;12643;51.620;7.548;2022-10-22T04:05:03;5.43;;;3.67;;
24483;SDS011;12643;51.620;7.548;2022-10-22T04:07:31;6.50;;;3.80;;
24483;SDS011;12643;51.620;7.548;2022-10-22T04:09:59;4.25;;;3.85;;
24483;SDS011;12643;51.620;7.548;2022-10-22T04:12:29;4.70;;;3.70;;
24483;SDS011;12643;51.620;7.548;2022-10-22T04:14:57;5.30;;;3.88;;
24483;SDS011;12643;51.620;7.548;2022-10-22T04:17:25;4.65;;;3.83;;
24483;SDS011;12643;51.620;7.548;2022-10-22T04:19:59;5.38;;;3.97;;
24483;SDS011;12643;51.620;7.548;2022-10-22T04:22:27;5.05;;;3.83;;
24483;SDS011;12643;51.620;7.548;2022-10-22T04:24:55;5.28;;;3.85;;
24483;SDS011;12643;51.620;7.548;2022-10-22T04:27:25;5.07;;;3.60;;
24483;SDS011;12643;51.620;7.548;2022-10-22T04:29:57;6.65;;;3.80;;
24483;SDS011;12643;51.620;7.548;2022-10-22T04:32:25;4.85;;;3.60;;
24483;SDS011;12643;51.620;7.548;2022-10-22T04:34:53;7.30;;;3.85;;
24483;SDS011;12643;51.620;7.548;2022-10-22T04:37:23;4.95;;;3.72;;
24483;SDS011;12643;51.620;7.548;2022-10-22T04:39:52;4.10;;;3.50;;
24483;SDS011;12643;51.620;7.548;2022-10-22T04:42:20;4.90;;;3.35;;
24483;SDS011;12643;51.620;7.548;2022-10-22T04:44:49;6.28;;;3.50;;
24483;SDS011;12643;51.620;7.548;2022-10-22T04:47:23;6.40;;;3.30;;
24483;SDS011;12643;51.620;7.548;2022-10-22T04:49:51;3.13;;;2.75;;
24483;SDS011;12643;51.620;7.548;2022-10-22T04:52:19;4.03;;;3.28;;
24483;SDS011;12643;51.620;7.548;2022-10-22T04:54:46;5.35;;;3.33;;
24483;SDS011;12643;51.620;7.548;2022-10-22T04:57:14;4.20;;;3.03;;
24483;SDS011;12643;51.620;7.548;2022-10-22T04:59:42;7.05;;;4.50;;
24483;SDS011;12643;51.620;7.548;2022-10-22T05:02:12;3.70;;;3.28;;
24483;SDS011;12643;51.620;7.548;2022-10-22T05:04:42;5.35;;;4.22;;
24483;SDS011;12643;51.620;7.548;2022-10-22T05:07:10;5.28;;;3.65;;
24483;SDS011;12643;51.620;7.548;2022-10-22T05:09:38;4.70;;;3.05;;
24483;SDS011;12643;51.620;7.548;2022-10-22T05:12:06;4.28;;;3.47;;
24483;SDS011;12643;51.620;7.548;2022-10-22T05:14:34;4.32;;;3.58;;
24483;SDS011;12643;51.620;7.548;2022-10-22T05:17:02;5.90;;;3.63;;
24483;SDS011;12643;51.620;7.548;2022-10-22T05:19:32;4.18;;;3.45;;
24483;SDS011;12643;51.620;7.548;2022-10-22T05:22:01;5.45;;;3.83;;
24483;SDS011;12643;51.620;7.548;2022-10-22T05:24:31;3.13;;;2.80;;
24483;SDS011;12643;51.620;7.548;2022-10-22T05:27:01;4.22;;;3.53;;
24483;SDS011;12643;51.620;7.548;2022-10-22T05:29:30;7.32;;;3.90;;
24483;SDS011;12643;51.620;7.548;2022-10-22T05:31:57;5.90;;;3.70;;
24483;SDS011;12643;51.620;7.548;2022-10-22T05:34:25;6.72;;;3.33;;
24483;SDS011;12643;51.620;7.548;2022-10-22T05:36:56;3.65;;;3.28;;
24483;SDS011;12643;51.620;7.548;2022-10-22T05:39:24;4.72;;;3.67;;
24483;SDS011;12643;51.620;7.548;2022-10-22T05:41:52;11.10;;;6.18;;
24483;SDS011;12643;51.620;7.548;2022-10-22T05:44:21;7.50;;;4.15;;
24483;SDS011;12643;51.620;7.548;2022-10-22T05:46:49;4.22;;;3.53;;
24483;SDS011;12643;51.620;7.548;2022-10-22T05:49:17;4.68;;;3.72;;
24483;SDS011;12643;51.620;7.548;2022-10-22T05:51:45;4.20;;;3.47;;
24483;SDS011;12643;51.620;7.548;2022-10-22T05:54:16;4.93;;;3.67;;
24483;SDS011;12643;51.620;7.548;2022-10-22T05:56:46;3.85;;;2.83;;
24483;SDS011;12643;51.620;7.548;2022-10-22T05:59:15;3.90;;;3.03;;
24483;SDS011;12643;51.620;7.548;2022-10-22T06:01:45;3.70;;;3.30;;
24483;SDS011;12643;51.620;7.548;2022-10-22T06:04:15;13.57;;;4.00;;
24483;SDS011;12643;51.620;7.548;2022-10-22T06:06:44;6.45;;;4.80;;
24483;SDS011;12643;51.620;7.548;2022-10-22T06:09:13;6.80;;;4.47;;
24483;SDS011;12643;51.620;7.548;2022-10-22T06:11:47;7.25;;;5.13;;
24483;SDS011;12643;51.620;7.548;2022-10-22T06:14:15;5.57;;;4.75;;
24483;SDS011;12643;51.620;7.548;2022-10-22T06:16:44;7.97;;;5.13;;
24483;SDS011;12643;51.620;7.548;2022-10-22T06:19:12;9.00;;;5.65;;
24483;SDS011;12643;51.620;7.548;2022-10-22T06:21:42;7.20;;;4.90;;
24483;SDS011;12643;51.620;7.548;2022-10-22T06:24:10;6.85;;;4.95;;
24483;SDS011;12643;51.620;7.548;2022-10-22T06:26:40;9.68;;;5.32;;
24483;SDS011;12643;51.620;7.548;2022-10-22T06:29:08;8.45;;;5.13;;
24483;SDS011;12643;51.620;7.548;2022-10-22T06:31:38;7.22;;;5.78;;
24483;SDS011;12643;51.620;7.548;2022-10-22T06:34:07;8.60;;;4.90;;
24483;SDS011;12643;51.620;7.548;2022-10-22T06:36:36;12.35;;;5.95;;
24483;SDS011;12643;51.620;7.548;2022-10-22T06:39:05;6.63;;;5.53;;
24483;SDS011;12643;51.620;7.548;2022-10-22T06:41:33;8.00;;;5.60;;
24483;SDS011;12643;51.620;7.548;2022-10-22T06:44:04;6.63;;;4.68;;
24483;SDS011;12643;51.620;7.548;2022-10-22T06:46:32;6.68;;;5.10;;
24483;SDS011;12643;51.620;7.548;2022-10-22T06:49:01;5.45;;;4.32;;
24483;SDS011;12643;51.620;7.548;2022-10-22T06:51:31;10.43;;;5.25;;
24483;SDS011;12643;51.620;7.548;2022-10-22T06:53:59;10.20;;;4.60;;
24483;SDS011;12643;51.620;7.548;2022-10-22T06:56:27;10.50;;;4.90;;
24483;SDS011;12643;51.620;7.548;2022-10-22T06:58:56;10.30;;;5.55;;
24483;SDS011;12643;51.620;7.548;2022-10-22T07:01:26;9.65;;;5.43;;
24483;SDS011;12643;51.620;7.548;2022-10-22T07:03:56;6.38;;;5.30;;
24483;SDS011;12643;51.620;7.548;2022-10-22T07:06:25;5.63;;;4.90;;
24483;SDS011;12643;51.620;7.548;2022-10-22T07:08:53;7.68;;;5.30;;
24483;SDS011;12643;51.620;7.548;2022-10-22T07:11:23;6.22;;;4.97;;
24483;SDS011;12643;51.620;7.548;2022-10-22T07:13:53;6.35;;;5.45;;
24483;SDS011;12643;51.620;7.548;2022-10-22T07:16:22;5.88;;;5.28;;
24483;SDS011;12643;51.620;7.548;2022-10-22T07:18:51;8.40;;;5.85;;
24483;SDS011;12643;51.620;7.548;2022-10-22T07:21:19;7.93;;;6.10;;
24483;SDS011;12643;51.620;7.548;2022-10-22T07:23:47;8.10;;;5.90;;
24483;SDS011;12643;51.620;7.548;2022-10-22T07:26:16;9.50;;;7.53;;
24483;SDS011;12643;51.620;7.548;2022-10-22T07:28:47;14.60;;;7.13;;
24483;SDS011;12643;51.620;7.548;2022-10-22T07:31:15;11.25;;;8.20;;
24483;SDS011;12643;51.620;7.548;2022-10-22T07:33:44;9.68;;;8.50;;
24483;SDS011;12643;51.620;7.548;2022-10-22T07:36:14;17.42;;;10.15;;
24483;SDS011;12643;51.620;7.548;2022-10-22T07:38:43;14.40;;;11.77;;
24483;SDS011;12643;51.620;7.548;2022-10-22T07:41:12;26.42;;;14.88;;
24483;SDS011;12643;51.620;7.548;2022-10-22T07:43:40;24.50;;;15.13;;
24483;SDS011;12643;51.620;7.548;2022-10-22T07:46:10;28.58;;;18.52;;
24483;SDS011;12643;51.620;7.548;2022-10-22T07:48:40;27.70;;;17.42;;
24483;SDS011;12643;51.620;7.548;2022-10-22T07:51:08;22.83;;;15.70;;
24483;SDS011;12643;51.620;7.548;2022-10-22T07:53:37;21.58;;;14.30;;
24483;SDS011;12643;51.620;7.548;2022-10-22T07:56:05;25.58;;;15.32;;
24483;SDS011;12643;51.620;7.548;2022-10-22T07:58:34;16.90;;;11.60;;
24483;SDS011;12643;51.620;7.548;2022-10-22T08:01:04;17.50;;;10.45;;
24483;SDS011;12643;51.620;7.548;2022-10-22T08:03:33;15.98;;;9.63;;
24483;SDS011;12643;51.620;7.548;2022-10-22T08:06:01;14.55;;;9.57;;
24483;SDS011;12643;51.620;7.548;2022-10-22T08:08:29;16.92;;;8.73;;
24483;SDS011;12643;51.620;7.548;2022-10-22T08:10:59;15.52;;;8.80;;
24483;SDS011;12643;51.620;7.548;2022-10-22T08:13:28;15.93;;;8.43;;
24483;SDS011;12643;51.620;7.548;2022-10-22T08:15:57;12.70;;;7.82;;
24483;SDS011;12643;51.620;7.548;2022-10-22T08:18:26;19.08;;;8.38;;
24483;SDS011;12643;51.620;7.548;2022-10-22T08:20:54;13.10;;;7.80;;
24483;SDS011;12643;51.620;7.548;2022-10-22T08:23:23;14.35;;;7.60;;
24483;SDS011;12643;51.620;7.548;2022-10-22T08:25:54;14.00;;;7.65;;
24483;SDS011;12643;51.620;7.548;2022-10-22T08:28:26;11.93;;;7.70;;
24483;SDS011;12643;51.620;7.548;2022-10-22T08:30:56;14.07;;;6.35;;
24483;SDS011;12643;51.620;7.548;2022-10-22T08:33:24;17.00;;;6.65;;
24483;SDS011;12643;51.620;7.548;2022-10-22T08:35:52;14.57;;;6.63;;
24483;SDS011;12643;51.620;7.548;2022-10-22T08:38:20;13.35;;;5.25;;
24483;SDS011;12643;51.620;7.548;2022-10-22T08:40:49;11.38;;;5.30;;
24483;SDS011;12643;51.620;7.548;2022-10-22T08:46:37;14.55;;;4.68;;
24483;SDS011;12643;51.620;7.548;2022-10-22T08:49:16;13.90;;;5.03;;
24483;SDS011;12643;51.620;7.548;2022-10-22T08:54:26;15.15;;;5.00;;
24483;SDS011;12643;51.620;7.548;2022-10-22T08:57:02;14.90;;;4.13;;
24483;SDS011;12643;51.620;7.548;2022-10-22T08:59:44;20.08;;;4.90;;
24483;SDS011;12643;51.620;7.548;2022-10-22T09:02:21;12.45;;;4.25;;
24483;SDS011;12643;51.620;7.548;2022-10-22T09:05:01;11.52;;;3.60;;
24483;SDS011;12643;51.620;7.548;2022-10-22T09:07:41;8.07;;;2.88;;
24483;SDS011;12643;51.620;7.548;2022-10-22T09:10:15;15.48;;;4.15;;
24483;SDS011;12643;51.620;7.548;2022-10-22T09:12:43;8.85;;;3.38;;
24483;SDS011;12643;51.620;7.548;2022-10-22T09:15:13;10.57;;;3.35;;
24483;SDS011;12643;51.620;7.548;2022-10-22T09:17:54;13.68;;;3.40;;
24483;SDS011;12643;51.620;7.548;2022-10-22T09:20:31;15.90;;;3.13;;
24483;SDS011;12643;51.620;7.548;2022-10-22T09:23:04;8.77;;;3.33;;
24483;SDS011;12643;51.620;7.548;2022-10-22T09:25:48;7.63;;;3.40;;
24483;SDS011;12643;51.620;7.548;2022-10-22T09:28:18;14.20;;;3.03;;
24483;SDS011;12643;51.620;7.548;2022-10-22T09:30:47;14.23;;;3.20;;
24483;SDS011;12643;51.620;7.548;2022-10-22T09:33:22;11.90;;;3.50;;
24483;SDS011;12643;51.620;7.548;2022-10-22T09:35:52;13.18;;;3.38;;
24483;SDS011;12643;51.620;7.548;2022-10-22T09:38:24;11.57;;;3.08;;
24483;SDS011;12643;51.620;7.548;2022-10-22T09:40:56;8.63;;;2.88;;
24483;SDS011;12643;51.620;7.548;2022-10-22T09:43:26;7.43;;;3.10;;
24483;SDS011;12643;51.620;7.548;2022-10-22T09:45:58;11.32;;;2.72;;
24483;SDS011;12643;51.620;7.548;2022-10-22T09:48:31;8.52;;;2.38;;
24483;SDS011;12643;51.620;7.548;2022-10-22T09:51:05;12.32;;;2.90;;
24483;SDS011;12643;51.620;7.548;2022-10-22T09:53:41;12.02;;;2.88;;
24483;SDS011;12643;51.620;7.548;2022-10-22T09:56:15;13.73;;;2.65;;
24483;SDS011;12643;51.620;7.548;2022-10-22T09:58:48;9.65;;;3.05;;
24483;SDS011;12643;51.620;7.548;2022-10-22T10:01:17;13.20;;;2.85;;
24483;SDS011;12643;51.620;7.548;2022-10-22T10:03:50;9.38;;;3.00;;
24483;SDS011;12643;51.620;7.548;2022-10-22T10:06:18;11.15;;;3.10;;
24483;SDS011;12643;51.620;7.548;2022-10-22T10:08:48;12.30;;;3.40;;
24483;SDS011;12643;51.620;7.548;2022-10-22T10:11:20;5.40;;;2.33;;
24483;SDS011;12643;51.620;7.548;2022-10-22T10:13:56;11.48;;;2.50;;
24483;SDS011;12643;51.620;7.548;2022-10-22T10:16:37;12.25;;;2.97;;
24483;SDS011;12643;51.620;7.548;2022-10-22T10:19:14;12.43;;;2.33;;
24483;SDS011;12643;51.620;7.548;2022-10-22T10:22:00;8.68;;;2.65;;
24483;SDS011;12643;51.620;7.548;2022-10-22T10:27:14;7.18;;;2.08;;
24483;SDS011;12643;51.620;7.548;2022-10-22T10:29:52;9.35;;;2.30;;
24483;SDS011;12643;51.620;7.548;2022-10-22T10:32:28;5.75;;;2.30;;
24483;SDS011;12643;51.620;7.548;2022-10-22T10:35:18;12.27;;;2.50;;
24483;SDS011;12643;51.620;7.548;2022-10-22T10:37:55;11.00;;;2.50;;
24483;SDS011;12643;51.620;7.548;2022-10-22T10:40:49;8.13;;;2.22;;
24483;SDS011;12643;51.620;7.548;2022-10-22T10:43:28;14.75;;;2.53;;
24483;SDS011;12643;51.620;7.548;2022-10-22T10:46:04;19.13;;;2.50;;
24483;SDS011;12643;51.620;7.548;2022-10-22T10:48:52;4.68;;;2.28;;
24483;SDS011;12643;51.620;7.548;2022-10-22T10:51:34;13.68;;;2.72;;
24483;SDS011;12643;51.620;7.548;2022-10-22T10:54:20;12.30;;;2.45;;
24483;SDS011;12643;51.620;7.548;2022-10-22T10:56:59;8.57;;;2.42;;
24483;SDS011;12643;51.620;7.548;2022-10-22T10:59:44;8.93;;;2.53;;
24483;SDS011;12643;51.620;7.548;2022-10-22T11:02:41;10.88;;;2.85;;
24483;SDS011;12643;51.620;7.548;2022-10-22T11:05:35;11.45;;;2.55;;
24483;SDS011;12643;51.620;7.548;2022-10-22T11:08:10;9.40;;;2.65;;
24483;SDS011;12643;51.620;7.548;2022-10-22T11:10:44;7.15;;;2.33;;
24483;SDS011;12643;51.620;7.548;2022-10-22T11:13:18;13.45;;;2.70;;
24483;SDS011;12643;51.620;7.548;2022-10-22T11:15:54;11.88;;;2.38;;
24483;SDS011;12643;51.620;7.548;2022-10-22T11:18:27;6.97;;;1.80;;
24483;SDS011;12643;51.620;7.548;2022-10-22T11:21:06;6.00;;;1.70;;
24483;SDS011;12643;51.620;7.548;2022-10-22T11:23:43;7.63;;;2.13;;
24483;SDS011;12643;51.620;7.548;2022-10-22T11:26:24;5.63;;;1.60;;
24483;SDS011;12643;51.620;7.548;2022-10-22T11:28:58;7.07;;;1.75;;
24483;SDS011;12643;51.620;7.548;2022-10-22T11:33:59;10.52;;;2.20;;
24483;SDS011;12643;51.620;7.548;2022-10-22T11:36:33;8.27;;;2.00;;
24483;SDS011;12643;51.620;7.548;2022-10-22T11:39:03;5.32;;;1.38;;
24483;SDS011;12643;51.620;7.548;2022-10-22T11:41:32;5.80;;;1.80;;
24483;SDS011;12643;51.620;7.548;2022-10-22T11:44:08;7.45;;;2.53;;
24483;SDS011;12643;51.620;7.548;2022-10-22T11:46:38;5.72;;;1.52;;
24483;SDS011;12643;51.620;7.548;2022-10-22T11:49:18;6.53;;;1.55;;
24483;SDS011;12643;51.620;7.548;2022-10-22T11:52:20;5.47;;;2.15;;
24483;SDS011;12643;51.620;7.548;2022-10-22T11:54:59;6.68;;;1.85;;
24483;SDS011;12643;51.620;7.548;2022-10-22T11:57:29;9.68;;;1.80;;
24483;SDS011;12643;51.620;7.548;2022-10-22T12:00:05;6.88;;;1.83;;
24483;SDS011;12643;51.620;7.548;2022-10-22T12:03:01;9.00;;;1.98;;
24483;SDS011;12643;51.620;7.548;2022-10-22T12:05:34;6.22;;;1.75;;
24483;SDS011;12643;51.620;7.548;2022-10-22T12:08:19;7.32;;;1.63;;
24483;SDS011;12643;51.620;7.548;2022-10-22T12:13:59;7.07;;;1.50;;
24483;SDS011;12643;51.620;7.548;2022-10-22T12:16:36;9.55;;;2.50;;
24483;SDS011;12643;51.620;7.548;2022-10-22T12:19:11;7.05;;;2.00;;
24483;SDS011;12643;51.620;7.548;2022-10-22T12:21:42;4.85;;;2.20;;
24483;SDS011;12643;51.620;7.548;2022-10-22T12:24:14;7.40;;;1.73;;
24483;SDS011;12643;51.620;7.548;2022-10-22T12:26:46;4.47;;;1.85;;
24483;SDS011;12643;51.620;7.548;2022-10-22T12:29:17;9.18;;;1.67;;
24483;SDS011;12643;51.620;7.548;2022-10-22T12:31:47;8.02;;;2.03;;
24483;SDS011;12643;51.620;7.548;2022-10-22T12:34:16;10.00;;;1.88;;
24483;SDS011;12643;51.620;7.548;2022-10-22T12:36:49;11.88;;;1.83;;
24483;SDS011;12643;51.620;7.548;2022-10-22T12:39:19;4.25;;;1.50;;
24483;SDS011;12643;51.620;7.548;2022-10-22T12:42:09;4.57;;;1.52;;
24483;SDS011;12643;51.620;7.548;2022-10-22T12:44:40;5.00;;;1.50;;
24483;SDS011;12643;51.620;7.548;2022-10-22T12:47:09;4.60;;;1.30;;
24483;SDS011;12643;51.620;7.548;2022-10-22T12:49:41;7.30;;;1.40;;
24483;SDS011;12643;51.620;7.548;2022-10-22T12:52:13;2.20;;;1.40;;
24483;SDS011;12643;51.620;7.548;2022-10-22T12:54:50;4.03;;;1.50;;
24483;SDS011;12643;51.620;7.548;2022-10-22T12:57:24;6.75;;;1.80;;
24483;SDS011;12643;51.620;7.548;2022-10-22T12:59:54;6.32;;;1.80;;
24483;SDS011;12643;51.620;7.548;2022-10-22T13:02:26;5.93;;;1.50;;
24483;SDS011;12643;51.620;7.548;2022-10-22T13:05:03;7.07;;;2.00;;
24483;SDS011;12643;51.620;7.548;2022-10-22T13:07:41;4.32;;;1.30;;
24483;SDS011;12643;51.620;7.548;2022-10-22T13:10:17;5.15;;;1.40;;
24483;SDS011;12643;51.620;7.548;2022-10-22T13:12:53;5.57;;;1.40;;
24483;SDS011;12643;51.620;7.548;2022-10-22T13:15:34;6.95;;;1.92;;
24483;SDS011;12643;51.620;7.548;2022-10-22T13:18:16;4.32;;;1.45;;
24483;SDS011;12643;51.620;7.548;2022-10-22T13:20:54;7.55;;;1.52;;
24483;SDS011;12643;51.620;7.548;2022-10-22T13:23:26;5.93;;;1.45;;
24483;SDS011;12643;51.620;7.548;2022-10-22T13:26:00;8.70;;;1.58;;
24483;SDS011;12643;51.620;7.548;2022-10-22T13:28:35;7.82;;;2.17;;
24483;SDS011;12643;51.620;7.548;2022-10-22T13:31:07;8.63;;;2.03;;
24483;SDS011;12643;51.620;7.548;2022-10-22T13:33:40;7.68;;;1.85;;
24483;SDS011;12643;51.620;7.548;2022-10-22T13:36:11;7.10;;;1.33;;
24483;SDS011;12643;51.620;7.548;2022-10-22T13:38:41;5.57;;;1.73;;
24483;SDS011;12643;51.620;7.548;2022-10-22T13:41:18;8.50;;;2.22;;
24483;SDS011;12643;51.620;7.548;2022-10-22T13:43:48;5.82;;;2.55;;
24483;SDS011;12643;51.620;7.548;2022-10-22T13:46:17;7.50;;;2.00;;
24483;SDS011;12643;51.620;7.548;2022-10-22T13:48:46;6.97;;;1.83;;
24483;SDS011;12643;51.620;7.548;2022-10-22T13:51:17;5.38;;;2.40;;
24483;SDS011;12643;51.620;7.548;2022-10-22T13:53:47;5.93;;;2.03;;
24483;SDS011;12643;51.620;7.548;2022-10-22T13:56:23;8.93;;;2.13;;
24483;SDS011;12643;51.620;7.548;2022-10-22T13:58:53;10.38;;;2.30;;
24483;SDS011;12643;51.620;7.548;2022-10-22T14:01:25;5.15;;;1.00;;
24483;SDS011;12643;51.620;7.548;2022-10-22T14:06:22;3.72;;;1.73;;
24483;SDS011;12643;51.620;7.548;2022-10-22T14:08:53;4.15;;;1.67;;
24483;SDS011;12643;51.620;7.548;2022-10-22T14:11:23;5.28;;;2.05;;
24483;SDS011;12643;51.620;7.548;2022-10-22T14:13:53;3.97;;;1.33;;
24483;SDS011;12643;51.620;7.548;2022-10-22T14:16:22;6.53;;;1.60;;
24483;SDS011;12643;51.620;7.548;2022-10-22T14:18:51;5.32;;;1.55;;
24483;SDS011;12643;51.620;7.548;2022-10-22T14:21:21;3.97;;;1.35;;
24483;SDS011;12643;51.620;7.548;2022-10-22T14:23:49;7.90;;;1.38;;
24483;SDS011;12643;51.620;7.548;2022-10-22T14:26:20;1.70;;;0.93;;
24483;SDS011;12643;51.620;7.548;2022-10-22T14:28:49;7.95;;;1.65;;
24483;SDS011;12643;51.620;7.548;2022-10-22T14:31:23;5.60;;;1.77;;
24483;SDS011;12643;51.620;7.548;2022-10-22T14:33:51;6.07;;;1.27;;
24483;SDS011;12643;51.620;7.548;2022-10-22T14:36:19;6.32;;;1.30;;
24483;SDS011;12643;51.620;7.548;2022-10-22T14:38:47;6.25;;;2.03;;
24483;SDS011;12643;51.620;7.548;2022-10-22T14:41:17;2.58;;;1.00;;
24483;SDS011;12643;51.620;7.548;2022-10-22T14:43:48;4.50;;;1.10;;
24483;SDS011;12643;51.620;7.548;2022-10-22T14:46:17;4.07;;;1.15;;
24483;SDS011;12643;51.620;7.548;2022-10-22T14:51:16;4.25;;;1.20;;
24483;SDS011;12643;51.620;7.548;2022-10-22T14:53:47;6.63;;;2.15;;
24483;SDS011;12643;51.620;7.548;2022-10-22T14:56:15;3.78;;;1.50;;
24483;SDS011;12643;51.620;7.548;2022-10-22T14:58:45;4.80;;;1.20;;
24483;SDS011;12643;51.620;7.548;2022-10-22T15:01:14;6.10;;;1.70;;
24483;SDS011;12643;51.620;7.548;2022-10-22T15:03:46;3.80;;;1.42;;
24483;SDS011;12643;51.620;7.548;2022-10-22T15:06:14;3.22;;;1.42;;
24483;SDS011;12643;51.620;7.548;2022-10-22T15:08:43;3.72;;;0.98;;
24483;SDS011;12643;51.620;7.548;2022-10-22T15:11:11;2.40;;;1.08;;
24483;SDS011;12643;51.620;7.548;2022-10-22T15:13:42;1.90;;;1.20;;
24483;SDS011;12643;51.620;7.548;2022-10-22T15:16:10;3.28;;;1.48;;
24483;SDS011;12643;51.620;7.548;2022-10-22T15:18:40;4.90;;;1.58;;
24483;SDS011;12643;51.620;7.548;2022-10-22T15:21:13;4.35;;;1.30;;
24483;SDS011;12643;51.620;7.548;2022-10-22T15:23:42;3.17;;;1.20;;
24483;SDS011;12643;51.620;7.548;2022-10-22T15:26:11;3.33;;;1.30;;
24483;SDS011;12643;51.620;7.548;2022-10-22T15:28:39;8.82;;;1.60;;
24483;SDS011;12643;51.620;7.548;2022-10-22T15:31:10;6.05;;;1.42;;
24483;SDS011;12643;51.620;7.548;2022-10-22T15:36:08;2.72;;;1.23;;